Αρχική σελίδα
METAR-TAF:

METAR-TAF

Αεροδρόμια :

Chongqing, Κίνα

γεωγραφικό πλάτος: 29-31N, γεωγραφικό μήκος: 106-29E, υψόμετρο: 351 μ

Παρών καιρός

Η αναφορά έγινε 1 ώρα και 13 λεπτά πριν, στις 00:00 UTC
Άνεμος 4 kt από Ν, μεταβλητός μεταξύ Ν/NA και ΝΔ
Θερμοκρασία 25°C
Υγρασία 74%
Πίεση 1006 hPa
Ορατότητα 10 χλμ και άνω
Ασθενής βροχή,

METAR: ZUCK 280000Z 19002MPS 160V230 9999 -RA NSC 25/20 Q1006 NOSIG

Χρόνος: 09:13 (01:13 UTC)

Πρόγνωση Καιρού

Η αναφορά έγινε 4 ώρες και 1 λεπτά πριν, στις 21:12 UTC
Η πρόγνωση ισχύει από τις 28 στις 00 UTC έως τις 28 στις 24 UTC
Άνεμος 6 kt από Β/BA
Ορατότητα: 3500 μ
Νεφοσκεπής σε ύψος 4000 πόδια
Αχλής
Προσωρινά
από 28 στις 00 UTC έως τις 28 στις 06 UTC
Όμβροι,

TAF: ZUCK 272112Z 2800/2824 03003MPS 3500 BR OVC040 TX27/2807Z TN23/2822Z TEMPO 2800/2806 SHRA

Μετεωρολογικές αναφορές και προγνώσεις για περισσότερα από 4000 αεροδρόμια (δελτία METAR και TAF).

Οι διαθέσιμοι σταθμοί απεικονίζονται στο χάρτη με κίτρινες και κόκκινες κουκκίδες.

Μετακινήστε το ποντίκι πάνω από τις κουκκίδες για να δείτε το όνομα του σταθμού.

Στη συνέχεια, κάντε κλικ για να δείτε τις μετεωρολογικές αναφορές και τις προγνώσεις καιρού.

Για να αλλάξετε το χάρτη: κάντε κλικ στα πράσινα κουμπιά με τον μαύρο σταυρό για να ζουμάρετε, στο πράσινο κουμπί με την παύλα για να αφαιρέσετε το ζουμ ή στα πράσινα βέλη για να αντιπαραβάλλετε χάρτες.


METAR-TAF: